Aviation Digital Data Service (ADDS)

Output produced by METARs form (0920 UTC 17 February 2019)
found at http://aviationweather.gov/metar/data/
 
METAR text: TBPB 170900Z 09016KT 9999 SCT020 25/21 Q1015 NOSIG
Conditions at: TBPB (GRANTLEY ADAMS , BB) observed 0900 UTC 17 February 2019
Temperature: 25.0°C (77°F)
Dewpoint: 21.0°C (70°F) [RH = 79%]
Pressure (altimeter): 29.97 inches Hg (1015.0 mb)
Winds: from the E (90 degrees) at 18 MPH (16 knots; 8.2 m/s)
Visibility: 6 or more miles (10+ km)
Ceiling: at least 12,000 feet AGL
Clouds: scattered clouds at 2000 feet AGL
Weather: no significant weather observed at this time

Forecast for: TBPB (GRANTLEY ADAMS , BB)
Text: TAF TBPB 170500Z 1706/1806 10016KT 9999 SCT020
Forecast period: 0600 UTC 17 February 2019 to 0600 UTC 18 February 2019
Forecast type: FROM: standard forecast or significant change
Winds: from the E (100 degrees) at 18 MPH (16 knots; 8.2 m/s)
Visibility: 6 or more miles 10+ km)
Ceiling: at least 12,000 feet AGL
Clouds: scattered clouds at 2000 feet AGL
Weather: no significant weather forecast for this period